UMII 170400Z 02003G06MPS 9999 SCT033CB 18/17 Q1010 TEMPO 2000 SHRA BKN007
QNH:(hPa/inHg/mmHg)1010 / 29.83 / 758
QFE:(hPa/inHg/mmHg)985 / 29.08 / 739
Temperature18
Dew Point17
Visibility2000
WeatherShowers Rain
Cloud CoverSCT (3300);
BKN (700);
Transition Altitude6000 ft.
Transition LevelFL80
SQUAWK